createdAt,value
2023-05-11T00:00:00.183Z,996.72
2023-05-11T00:05:00.213Z,996.65
2023-05-11T00:10:00.123Z,996.72
2023-05-11T00:15:00.170Z,996.6
2023-05-11T00:20:00.171Z,996.61
2023-05-11T00:25:00.165Z,996.58
2023-05-11T00:30:00.302Z,996.52
2023-05-11T00:35:00.173Z,996.53
2023-05-11T00:40:00.118Z,996.48
2023-05-11T00:45:00.157Z,996.48
2023-05-11T00:50:00.137Z,996.47
2023-05-11T00:55:00.176Z,996.5
2023-05-11T01:00:00.233Z,996.48
2023-05-11T01:05:00.112Z,996.47
2023-05-11T01:10:00.133Z,996.42
2023-05-11T01:15:00.169Z,996.45
2023-05-11T01:20:00.167Z,996.37
2023-05-11T01:25:00.154Z,996.33
2023-05-11T01:30:00.150Z,996.42
2023-05-11T01:35:00.207Z,996.28
2023-05-11T01:40:00.171Z,996.33
2023-05-11T01:45:00.172Z,996.35
2023-05-11T01:50:00.176Z,996.38
2023-05-11T01:55:00.165Z,996.37
2023-05-11T02:00:00.139Z,996.41
2023-05-11T02:05:00.120Z,996.51
2023-05-11T02:10:00.216Z,996.46
2023-05-11T02:15:00.150Z,996.46
2023-05-11T02:20:00.143Z,996.36
2023-05-11T02:25:00.141Z,996.38
2023-05-11T02:30:00.174Z,996.45
2023-05-11T02:35:00.174Z,996.47
2023-05-11T02:40:00.104Z,996.46
2023-05-11T02:45:00.104Z,996.43
2023-05-11T02:50:00.121Z,996.45
2023-05-11T03:00:00.261Z,996.4
2023-05-11T03:05:00.203Z,996.34
2023-05-11T03:10:00.181Z,996.31
2023-05-11T03:15:00.125Z,996.26
2023-05-11T03:20:00.239Z,996.3
2023-05-11T03:25:00.184Z,996.35
2023-05-11T03:30:00.160Z,995.68
2023-05-11T03:35:00.147Z,995.75
2023-05-11T03:40:00.199Z,995.67
2023-05-11T03:45:00.152Z,995.72
2023-05-11T03:50:00.153Z,995.66
2023-05-11T03:55:00.138Z,995.63
2023-05-11T04:00:00.213Z,995.69
2023-05-11T04:05:00.160Z,995.72
2023-05-11T04:10:00.125Z,995.65
2023-05-11T04:15:00.202Z,995.69
2023-05-11T04:20:00.238Z,995.78
2023-05-11T04:25:00.126Z,995.75
2023-05-11T04:30:00.147Z,995.78
2023-05-11T04:35:00.158Z,995.73
2023-05-11T04:40:00.170Z,995.74
2023-05-11T04:45:00.142Z,995.75
2023-05-11T04:50:00.128Z,995.71
2023-05-11T04:55:00.159Z,995.76
2023-05-11T05:00:00.268Z,995.82
2023-05-11T05:05:00.129Z,995.76
2023-05-11T05:10:00.202Z,995.67
2023-05-11T05:15:00.183Z,995.7
2023-05-11T05:20:00.193Z,995.71
2023-05-11T05:25:00.118Z,995.74
2023-05-11T05:30:00.212Z,995.65
2023-05-11T05:35:00.164Z,995.77
2023-05-11T05:40:00.180Z,995.75
2023-05-11T05:45:00.119Z,995.86
2023-05-11T05:50:00.163Z,995.84
2023-05-11T05:55:00.157Z,995.85
2023-05-11T06:00:00.216Z,995.86
2023-05-11T06:05:00.195Z,995.93
2023-05-11T06:10:00.198Z,995.93
2023-05-11T06:15:00.147Z,995.95
2023-05-11T06:20:00.162Z,996.04
2023-05-11T06:25:00.157Z,995.95
2023-05-11T06:30:00.211Z,995.94
2023-05-11T06:35:00.110Z,995.97
2023-05-11T06:40:00.173Z,995.87
2023-05-11T06:45:00.191Z,995.94
2023-05-11T06:50:00.183Z,995.88
2023-05-11T06:55:00.144Z,995.89
2023-05-11T07:00:00.289Z,995.85
2023-05-11T07:05:00.184Z,995.82
2023-05-11T07:10:00.218Z,995.8
2023-05-11T07:15:00.138Z,995.83
2023-05-11T07:20:00.234Z,995.85
2023-05-11T07:25:00.135Z,995.78
2023-05-11T07:30:00.199Z,995.9
2023-05-11T07:35:00.125Z,995.91
2023-05-11T07:40:00.148Z,995.94
2023-05-11T07:45:00.204Z,995.88
2023-05-11T07:50:00.116Z,995.97
2023-05-11T07:55:00.182Z,995.95
2023-05-11T08:00:00.154Z,995.88
2023-05-11T08:05:00.147Z,995.99
2023-05-11T08:10:00.133Z,996.04
2023-05-11T08:15:00.299Z,996.01
2023-05-11T08:20:00.195Z,996.05
2023-05-11T08:25:00.163Z,996.06
2023-05-11T08:30:00.161Z,996.2
2023-05-11T08:35:00.283Z,996.14
2023-05-11T08:40:00.169Z,996.09
2023-05-11T08:45:00.121Z,996.12
2023-05-11T08:50:00.125Z,996.14
2023-05-11T08:55:00.122Z,996.14
2023-05-11T09:00:00.170Z,996.12
2023-05-11T09:05:00.154Z,996.11
2023-05-11T09:10:00.167Z,996.11
2023-05-11T09:15:02.878Z,996.07
2023-05-11T09:20:00.160Z,996.15
2023-05-11T09:25:00.135Z,996.14
2023-05-11T09:30:00.164Z,996.1
2023-05-11T09:35:00.154Z,996.08
2023-05-11T09:40:25.424Z,996.14
2023-05-11T09:45:00.163Z,996.1
2023-05-11T09:50:00.203Z,996.26
2023-05-11T09:55:00.129Z,996.28
2023-05-11T10:00:00.314Z,996.26
2023-05-11T10:05:00.138Z,996.21
2023-05-11T10:10:00.143Z,996.11
2023-05-11T10:15:00.159Z,996.01
2023-05-11T10:20:00.280Z,995.99
2023-05-11T10:25:00.210Z,996.05
2023-05-11T10:30:00.156Z,995.91
2023-05-11T10:35:00.129Z,995.93
2023-05-11T10:40:00.204Z,995.9
2023-05-11T10:45:00.137Z,995.91
2023-05-11T10:50:00.174Z,995.93
2023-05-11T10:55:00.131Z,995.85
2023-05-11T11:00:00.275Z,995.93
2023-05-11T11:05:00.205Z,995.84
2023-05-11T11:10:00.324Z,995.83
2023-05-11T11:15:00.255Z,995.71
2023-05-11T11:20:00.169Z,995.69
2023-05-11T11:25:00.173Z,995.74
2023-05-11T11:30:00.145Z,995.68
2023-05-11T11:35:00.149Z,995.8
2023-05-11T11:40:05.874Z,995.73
2023-05-11T11:45:00.192Z,995.77
2023-05-11T11:50:00.190Z,995.77
2023-05-11T11:55:00.159Z,995.79
2023-05-11T12:00:00.184Z,995.69
2023-05-11T12:05:00.193Z,995.7
2023-05-11T12:10:00.144Z,995.77
2023-05-11T12:15:00.156Z,995.67
2023-05-11T12:20:00.158Z,995.64
2023-05-11T12:25:00.648Z,995.69
2023-05-11T12:30:00.142Z,995.65
2023-05-11T12:35:00.112Z,995.74
2023-05-11T12:40:00.154Z,995.64
2023-05-11T12:45:00.143Z,995.75
2023-05-11T12:50:00.167Z,995.74
2023-05-11T12:55:00.709Z,995.71
2023-05-11T13:00:00.166Z,995.73
2023-05-11T13:05:00.114Z,995.8
2023-05-11T13:10:00.133Z,995.75
2023-05-11T13:15:00.130Z,995.67
2023-05-11T13:20:00.142Z,995.73
2023-05-11T13:25:00.158Z,995.69
2023-05-11T13:30:00.179Z,995.7
2023-05-11T13:35:00.146Z,995.67
2023-05-11T13:40:00.241Z,995.73
2023-05-11T13:45:00.293Z,995.72
2023-05-11T13:50:00.109Z,995.64
2023-05-11T13:55:00.124Z,995.72
2023-05-11T14:00:00.188Z,995.71
2023-05-11T14:05:00.132Z,995.64
2023-05-11T14:10:00.172Z,995.65
2023-05-11T14:15:00.161Z,995.53
2023-05-11T14:20:00.189Z,995.48
2023-05-11T14:25:00.114Z,995.57
2023-05-11T14:30:00.152Z,995.68
2023-05-11T14:35:00.143Z,995.7
2023-05-11T14:40:00.135Z,995.71
2023-05-11T14:45:00.162Z,995.73
2023-05-11T14:50:00.155Z,995.74
2023-05-11T14:55:00.117Z,995.69
2023-05-11T15:00:00.785Z,995.57
2023-05-11T15:05:00.152Z,995.73
2023-05-11T15:10:00.177Z,995.73
2023-05-11T15:15:00.156Z,995.82
2023-05-11T15:20:00.196Z,995.76
2023-05-11T15:25:00.108Z,995.85
2023-05-11T15:30:00.239Z,995.86
2023-05-11T15:35:00.394Z,995.88
2023-05-11T15:40:00.197Z,995.86
2023-05-11T15:45:00.127Z,995.98
2023-05-11T15:50:00.145Z,995.96
2023-05-11T15:55:00.153Z,995.93
2023-05-11T16:00:00.347Z,996.08
2023-05-11T16:05:00.128Z,996.11
2023-05-11T16:10:00.360Z,996.15
2023-05-11T16:15:00.132Z,996.16
2023-05-11T16:20:00.200Z,996.17
2023-05-11T16:25:00.142Z,996.22
2023-05-11T16:30:04.079Z,996.22
2023-05-11T16:35:00.103Z,996.22
2023-05-11T16:40:00.276Z,996.25
2023-05-11T16:45:00.154Z,996.24
2023-05-11T16:50:00.131Z,996.19
2023-05-11T16:55:00.165Z,996.33
2023-05-11T17:00:00.202Z,996.33
2023-05-11T17:05:00.119Z,996.33
2023-05-11T17:10:00.118Z,996.29
2023-05-11T17:15:00.223Z,996.3
2023-05-11T17:20:00.142Z,996.34
2023-05-11T17:25:00.144Z,996.35
2023-05-11T17:30:00.123Z,996.42
2023-05-11T17:35:00.135Z,996.32
2023-05-11T17:40:00.238Z,996.42
2023-05-11T17:45:00.180Z,996.32
2023-05-11T17:50:00.161Z,996.45
2023-05-11T17:55:00.116Z,996.53
2023-05-11T18:00:00.210Z,996.61
2023-05-11T18:05:00.178Z,996.65
2023-05-11T18:10:00.226Z,996.64
2023-05-11T18:15:00.128Z,996.74
2023-05-11T18:20:00.214Z,996.69
2023-05-11T18:25:00.151Z,996.81
2023-05-11T18:30:00.247Z,996.83
2023-05-11T18:35:00.179Z,996.88
2023-05-11T18:40:00.164Z,996.91
2023-05-11T18:45:00.147Z,996.91
2023-05-11T18:50:00.185Z,997.03
2023-05-11T18:55:00.147Z,997.1
2023-05-11T19:00:00.169Z,997.25
2023-05-11T19:05:00.187Z,997.26
2023-05-11T19:10:00.184Z,997.3
2023-05-11T19:15:00.135Z,997.33
2023-05-11T19:20:00.192Z,997.4
2023-05-11T19:25:00.161Z,997.27
2023-05-11T19:30:00.175Z,997.46
2023-05-11T19:35:00.141Z,997.53
2023-05-11T19:40:19.172Z,997.6
2023-05-11T19:45:00.135Z,997.53
2023-05-11T19:50:00.207Z,997.65
2023-05-11T19:55:00.140Z,997.73
2023-05-11T20:00:00.262Z,997.81
2023-05-11T20:05:00.105Z,997.74
2023-05-11T20:10:00.145Z,997.88
2023-05-11T20:15:00.142Z,997.88
2023-05-11T20:20:00.200Z,997.75
2023-05-11T20:25:00.132Z,997.9
2023-05-11T20:30:00.183Z,998.48
2023-05-11T20:35:00.100Z,998.46
2023-05-11T20:40:00.175Z,998.46
2023-05-11T20:45:00.144Z,998.5
2023-05-11T20:50:00.122Z,998.55
2023-05-11T20:55:00.111Z,998.57
2023-05-11T21:05:00.146Z,998.55
2023-05-11T21:10:00.118Z,998.49
2023-05-11T21:15:00.116Z,998.56
2023-05-11T21:20:00.193Z,998.46
2023-05-11T21:25:00.144Z,998.56
2023-05-11T21:30:00.221Z,998.61
2023-05-11T21:35:00.107Z,998.63
2023-05-11T21:40:00.172Z,998.57
2023-05-11T21:45:00.111Z,998.64
2023-05-11T21:50:00.138Z,998.65
2023-05-11T21:55:00.122Z,998.71
2023-05-11T22:00:00.241Z,998.74
2023-05-11T22:05:00.142Z,998.79
2023-05-11T22:10:00.158Z,998.81
2023-05-11T22:15:00.162Z,998.76
2023-05-11T22:20:00.139Z,998.89
2023-05-11T22:25:00.157Z,998.87
2023-05-11T22:30:00.199Z,998.96
2023-05-11T22:35:00.285Z,998.86
2023-05-11T22:40:00.124Z,998.86
2023-05-11T22:45:00.138Z,999.01
2023-05-11T22:50:00.141Z,998.87
2023-05-11T22:55:00.184Z,998.86
2023-05-11T23:00:00.160Z,998.93
2023-05-11T23:05:00.136Z,998.89
2023-05-11T23:10:00.182Z,998.91
2023-05-11T23:15:00.204Z,998.92
2023-05-11T23:20:00.881Z,998.89
2023-05-11T23:25:00.126Z,998.86
2023-05-11T23:30:00.139Z,998.88
2023-05-11T23:35:00.154Z,998.92
2023-05-11T23:40:00.219Z,998.9
2023-05-11T23:45:00.167Z,998.93
2023-05-11T23:50:00.146Z,998.85
2023-05-11T23:55:00.123Z,998.91
